Time;durP1;ratioP1;P1;durP2;ratioP2;P2;SDS_P1;SDS_P2;PMS_P1;PMS_P2;Temp;Humidity;BMP_temperature;BMP_pressure;BME280_temperature;BME280_humidity;BME280_pressure;Samples;Min_cycle;Max_cycle;Signal;HPM_P1;HPM_P2
2022/04/10 00:00:17;;;;;;;3.58;0.85;;;;;;;;;;5043398;28;20477;-83
2022/04/10 00:02:44;;;;;;;3.03;1.75;;;;;;;;;;5042713;28;20029;-84
2022/04/10 00:05:10;;;;;;;2.67;1.23;;;;;;;;;;5048527;28;20029;-85
2022/04/10 00:07:36;;;;;;;1.98;1.10;;;;;;;;;;5044459;28;20021;-82
2022/04/10 00:10:02;;;;;;;1.23;1.02;;;;;;;;;;5046009;28;20021;-83
2022/04/10 00:12:28;;;;;;;0.93;0.60;;;;;;;;;;5049087;28;20492;-85
2022/04/10 00:14:54;;;;;;;1.63;1.15;;;;;;;;;;5032732;28;20037;-83
2022/04/10 00:17:20;;;;;;;1.13;1.02;;;;;;;;;;5038081;28;20025;-83
2022/04/10 00:19:46;;;;;;;1.55;0.85;;;;;;;;;;5040670;28;22522;-83
2022/04/10 00:22:12;;;;;;;0.93;0.63;;;;;;;;;;5038926;28;20120;-83
2022/04/10 00:24:39;;;;;;;1.25;0.98;;;;;;;;;;5042842;28;20144;-83
2022/04/10 00:27:12;;;;;;;1.65;0.82;;;;;;;;;;5045218;28;20017;-82
2022/04/10 00:29:38;;;;;;;1.23;0.85;;;;;;;;;;5040301;28;20400;-85
2022/04/10 00:32:04;;;;;;;0.85;0.73;;;;;;;;;;5039413;28;20029;-81
2022/04/10 00:34:30;;;;;;;1.17;0.50;;;;;;;;;;5040794;28;20033;-82
2022/04/10 00:36:56;;;;;;;11.93;1.00;;;;;;;;;;5042236;28;20029;-82
2022/04/10 00:39:22;;;;;;;0.80;0.57;;;;;;;;;;5041227;28;20033;-83
2022/04/10 00:41:49;;;;;;;1.63;1.13;;;;;;;;;;5031129;28;20018;-83
2022/04/10 00:44:15;;;;;;;2.53;1.13;;;;;;;;;;5038206;28;20099;-83
2022/04/10 00:46:41;;;;;;;1.45;0.80;;;;;;;;;;5032370;28;20049;-83
2022/04/10 00:49:08;;;;;;;2.05;1.30;;;;;;;;;;5044317;28;20063;-81
2022/04/10 00:51:44;;;;;;;2.85;1.42;;;;;;;;;;5041121;28;20043;-82
2022/04/10 00:54:17;;;;;;;1.33;1.10;;;;;;;;;;5039910;28;20097;-82
2022/04/10 00:56:46;;;;;;;2.10;1.40;;;;;;;;;;5034930;28;20031;-84
2022/04/10 00:59:12;;;;;;;2.63;1.15;;;;;;;;;;5036400;28;20033;-83
2022/04/10 01:01:39;;;;;;;2.80;1.25;;;2.00;99.90;;;;;;5039997;28;20044;-83
2022/04/10 01:04:06;;;;;;;4.93;2.55;;;;;;;;;;5037084;28;20039;-81
2022/04/10 01:06:35;;;;;;;3.85;1.73;;;;;;;;;;5039907;28;20374;-83
2022/04/10 01:09:03;;;;;;;11.73;2.13;;;;;;;;;;5039715;28;20067;-82
2022/04/10 01:11:29;;;;;;;3.45;2.67;;;;;;;;;;5049436;28;20036;-82
2022/04/10 01:13:55;;;;;;;5.68;2.00;;;;;;;;;;5038164;28;20114;-82
2022/04/10 01:16:22;;;;;;;6.88;3.13;;;;;;;;;;5036887;28;20032;-81
2022/04/10 01:18:49;;;;;;;4.72;1.48;;;;;;;;;;5040452;28;20501;-81
2022/04/10 01:21:21;;;;;;;2.72;1.52;;;;;;;;;;5036968;28;20035;-82
2022/04/10 01:23:47;;;;;;;2.47;1.58;;;;;;;;;;5040150;28;20040;-86
2022/04/10 01:26:13;;;;;;;3.33;1.83;;;;;;;;;;5045101;28;20045;-84
2022/04/10 01:28:58;;;;;;;2.05;1.42;;;;;;;;;;5042808;28;20151;-83
2022/04/10 01:31:24;;;;;;;2.97;1.90;;;;;;;;;;5035948;28;20097;-83
2022/04/10 01:33:50;;;;;;;6.18;2.17;;;;;;;;;;5034266;28;20535;-85
2022/04/10 01:36:17;;;;;;;4.78;1.85;;;1.50;99.90;;;;;;5038068;28;20040;-83
2022/04/10 01:38:45;;;;;;;1.90;1.10;;;;;;;;;;5043024;28;20028;-82
2022/04/10 01:41:14;;;;;;;1.35;0.88;;;;;;;;;;5032764;28;20029;-81
2022/04/10 01:43:47;;;;;;;2.15;1.30;;;;;;;;;;5038862;28;20412;-81
2022/04/10 01:46:13;;;;;;;1.70;1.10;;;;;;;;;;5032313;28;20029;-81
2022/04/10 01:48:39;;;;;;;1.05;0.95;;;;;;;;;;5043069;28;20033;-82
2022/04/10 01:51:05;;;;;;;1.55;0.93;;;;;;;;;;5039900;28;20083;-82
2022/04/10 01:53:31;;;;;;;2.67;1.67;;;;;;;;;;5039486;28;20481;-82
2022/04/10 01:55:57;;;;;;;3.00;1.67;;;;;;;;;;5043329;28;20031;-83
2022/04/10 01:58:23;;;;;;;3.95;2.03;;;;;;;;;;5032174;28;20768;-82
2022/04/10 02:00:49;;;;;;;3.28;2.45;;;;;;;;;;5029633;28;20371;-82
2022/04/10 02:03:15;;;;;;;4.78;2.33;;;;;;;;;;5039949;28;20629;-82
2022/04/10 02:05:41;;;;;;;8.25;2.17;;;;;;;;;;5041320;28;20025;-83
2022/04/10 02:08:07;;;;;;;4.95;1.42;;;;;;;;;;5033366;28;20029;-82
2022/04/10 02:10:34;;;;;;;3.17;2.08;;;;;;;;;;5037017;28;20175;-82
2022/04/10 02:13:00;;;;;;;2.25;1.88;;;;;;;;;;5031725;28;20060;-84
2022/04/10 02:15:26;;;;;;;6.18;1.90;;;;;;;;;;5030454;28;20057;-83
2022/04/10 02:17:52;;;;;;;4.15;2.28;;;;;;;;;;5043023;28;20025;-83
2022/04/10 02:20:18;;;;;;;2.22;1.63;;;;;;;;;;5040276;28;20040;-84
2022/04/10 02:22:44;;;;;;;4.43;1.58;;;;;;;;;;5034338;28;20033;-82
2022/04/10 02:25:10;;;;;;;2.15;1.20;;;;;;;;;;5034432;28;20505;-82
2022/04/10 02:27:36;;;;;;;4.85;1.90;;;;;;;;;;5044421;28;20032;-82
2022/04/10 02:30:02;;;;;;;2.17;1.83;;;;;;;;;;5034670;28;20024;-82
2022/04/10 02:32:30;;;;;;;2.22;1.73;;;;;;;;;;5034800;28;20029;-82
2022/04/10 02:34:56;;;;;;;1.27;1.13;;;;;;;;;;5034898;28;20481;-82
2022/04/10 02:37:22;;;;;;;2.85;1.52;;;;;;;;;;5030571;28;20030;-82
2022/04/10 02:39:48;;;;;;;2.10;1.67;;;;;;;;;;5040463;28;20392;-83
2022/04/10 02:42:14;;;;;;;2.22;1.73;;;;;;;;;;5041455;28;20029;-83
2022/04/10 02:44:40;;;;;;;3.58;1.77;;;;;;;;;;5039193;28;20076;-82
2022/04/10 02:47:06;;;;;;;3.08;2.00;;;;;;;;;;5041204;28;20052;-82
2022/04/10 02:49:32;;;;;;;4.28;1.17;;;;;;;;;;5040062;28;20040;-83
2022/04/10 02:51:58;;;;;;;2.97;2.10;;;;;;;;;;5043369;28;20044;-83
2022/04/10 02:54:24;;;;;;;3.83;2.38;;;;;;;;;;5040997;28;20044;-82
2022/04/10 02:56:50;;;;;;;13.13;2.47;;;;;;;;;;5045334;28;20080;-83
2022/04/10 02:59:16;;;;;;;3.72;2.67;;;;;;;;;;5036952;28;20033;-83
2022/04/10 03:01:42;;;;;;;2.22;1.90;;;;;;;;;;5044282;28;20037;-82
2022/04/10 03:04:08;;;;;;;3.83;1.25;;;;;;;;;;5044574;28;20039;-81
2022/04/10 03:06:34;;;;;;;2.55;1.83;;;;;;;;;;5042741;28;20028;-83
2022/04/10 03:09:00;;;;;;;2.08;1.15;;;;;;;;;;5045745;28;20112;-83
2022/04/10 03:11:26;;;;;;;3.30;1.42;;;;;;;;;;5039889;28;20072;-83
2022/04/10 03:13:52;;;;;;;4.90;1.67;;;;;;;;;;5046160;28;20070;-83
2022/04/10 03:16:19;;;;;;;3.38;1.52;;;;;;;;;;5045194;28;20518;-83
2022/04/10 03:18:45;;;;;;;4.45;1.90;;;;;;;;;;5041262;28;20036;-82
2022/04/10 03:21:11;;;;;;;6.10;2.42;;;;;;;;;;5036148;28;20170;-83
2022/04/10 03:23:37;;;;;;;3.65;2.33;;;;;;;;;;5044368;28;20025;-81
2022/04/10 03:26:02;;;;;;;3.13;1.23;;;;;;;;;;5048782;28;20021;-82
2022/04/10 03:28:28;;;;;;;5.63;2.08;;;;;;;;;;5039139;28;20035;-83
2022/04/10 03:30:54;;;;;;;5.05;1.90;;;;;;;;;;5035771;28;20033;-81
2022/04/10 03:33:20;;;;;;;4.43;2.42;;;;;;;;;;5034884;28;20068;-82
2022/04/10 03:35:46;;;;;;;2.42;1.27;;;;;;;;;;5040017;28;20033;-82
2022/04/10 03:38:12;;;;;;;1.58;1.38;;;;;;;;;;5034451;28;20036;-81
2022/04/10 03:40:38;;;;;;;3.50;1.90;;;1.00;99.90;;;;;;5037287;28;20057;-82
2022/04/10 03:43:04;;;;;;;2.53;1.63;;;;;;;;;;5035794;28;21186;-81
2022/04/10 03:45:30;;;;;;;3.28;1.52;;;;;;;;;;5039128;28;20029;-81
2022/04/10 03:47:56;;;;;;;4.03;2.55;;;;;;;;;;5040134;28;20029;-84
2022/04/10 03:50:22;;;;;;;5.32;1.40;;;;;;;;;;5041222;28;20028;-83
2022/04/10 03:52:47;;;;;;;3.20;2.10;;;;;;;;;;5041490;28;20102;-83
2022/04/10 03:55:13;;;;;;;3.50;2.20;;;;;;;;;;5040296;28;20037;-82
2022/04/10 03:57:39;;;;;;;2.65;1.90;;;;;;;;;;5042545;28;20035;-82
2022/04/10 04:00:06;;;;;;;3.90;2.38;;;;;;;;;;5042515;28;20037;-83
2022/04/10 04:02:32;;;;;;;2.95;1.77;;;;;;;;;;5033922;28;20489;-81
2022/04/10 04:04:58;;;;;;;3.08;2.17;;;;;;;;;;5040976;28;20040;-83
2022/04/10 04:07:24;;;;;;;2.55;1.27;;;;;;;;;;5037904;28;21162;-83
2022/04/10 04:09:50;;;;;;;2.97;2.10;;;;;;;;;;5040329;28;20440;-82
2022/04/10 04:12:16;;;;;;;6.15;1.85;;;;;;;;;;5034867;28;20507;-82
2022/04/10 04:14:42;;;;;;;1.80;1.35;;;;;;;;;;5045931;28;20029;-84
2022/04/10 04:17:08;;;;;;;3.42;1.40;;;;;;;;;;5040958;28;22157;-82
2022/04/10 04:19:34;;;;;;;2.45;1.83;;;;;;;;;;5038655;28;20033;-82
2022/04/10 04:22:00;;;;;;;6.55;1.52;;;;;;;;;;5042912;28;20029;-82
2022/04/10 04:24:26;;;;;;;2.72;1.48;;;;;;;;;;5042512;28;20034;-81
2022/04/10 04:26:52;;;;;;;2.83;1.67;;;;;;;;;;5030747;28;20579;-82
2022/04/10 04:29:18;;;;;;;4.88;2.55;;;;;;;;;;5030483;28;20025;-82
2022/04/10 04:31:44;;;;;;;4.47;2.15;;;;;;;;;;5037105;28;20025;-83
2022/04/10 04:34:13;;;;;;;2.83;1.85;;;;;;;;;;5042718;28;20040;-81
2022/04/10 04:36:39;;;;;;;2.47;1.40;;;;;;;;;;5028027;28;20385;-80
2022/04/10 04:39:05;;;;;;;7.05;2.15;;;;;;;;;;5034996;28;20017;-82
2022/04/10 04:41:31;;;;;;;6.18;1.75;;;;;;;;;;5035896;28;20032;-83
2022/04/10 04:43:57;;;;;;;4.05;1.83;;;;;;;;;;5041077;28;20609;-81
2022/04/10 04:46:23;;;;;;;2.58;1.80;;;;;;;;;;5032396;28;20033;-80
2022/04/10 04:48:49;;;;;;;4.03;2.47;;;;;;;;;;5043549;28;20032;-81
2022/04/10 04:51:15;;;;;;;3.45;1.42;;;;;;;;;;5042655;28;20079;-81
2022/04/10 04:53:41;;;;;;;4.93;2.75;;;;;;;;;;5038591;28;20086;-80
2022/04/10 04:56:08;;;;;;;3.53;2.00;;;;;;;;;;5037658;28;20025;-82
2022/04/10 04:58:34;;;;;;;4.47;2.17;;;;;;;;;;5032162;28;20024;-83
2022/04/10 05:01:00;;;;;;;3.13;1.35;;;;;;;;;;5046342;28;20025;-82
2022/04/10 05:03:26;;;;;;;3.33;1.98;;;;;;;;;;5036282;28;20449;-82
2022/04/10 05:05:52;;;;;;;5.68;2.88;;;;;;;;;;5035138;28;20120;-82
2022/04/10 05:08:19;;;;;;;7.75;2.83;;;;;;;;;;5038902;28;20486;-81
2022/04/10 05:10:46;;;;;;;3.88;2.47;;;;;;;;;;5033858;28;20029;-81
2022/04/10 05:13:12;;;;;;;4.55;2.53;;;;;;;;;;5039931;28;20021;-82
2022/04/10 05:15:38;;;;;;;3.33;2.45;;;;;;;;;;5039452;28;20168;-80
2022/04/10 05:18:04;;;;;;;3.95;1.80;;;;;;;;;;5039103;28;20079;-81
2022/04/10 05:20:30;;;;;;;3.75;2.92;;;;;;;;;;5036041;28;20043;-82
2022/04/10 05:22:56;;;;;;;5.53;2.47;;;;;;;;;;5039735;28;20024;-82
2022/04/10 05:25:23;;;;;;;5.03;2.90;;;;;;;;;;5036754;28;20040;-82
2022/04/10 05:27:49;;;;;;;5.45;3.33;;;;;;;;;;5033178;28;20047;-83
2022/04/10 05:30:15;;;;;;;5.97;2.85;;;;;;;;;;5035921;28;20032;-81
2022/04/10 05:32:44;;;;;;;6.70;3.38;;;;;;;;;;5040053;28;20140;-81
2022/04/10 05:35:13;;;;;;;5.10;2.67;;;;;;;;;;5034552;28;20474;-80
2022/04/10 05:37:39;;;;;;;4.30;3.05;;;;;;;;;;5045068;28;20030;-82
2022/04/10 05:40:05;;;;;;;13.18;2.13;;;;;;;;;;5035535;28;20087;-81
2022/04/10 05:42:31;;;;;;;4.38;2.40;;;;;;;;;;5037785;28;20088;-82
2022/04/10 05:45:03;;;;;;;5.88;2.67;;;;;;;;;;5034449;28;20101;-83
2022/04/10 05:47:30;;;;;;;3.23;2.00;;;;;;;;;;5034028;28;20371;-82
2022/04/10 05:49:56;;;;;;;2.75;2.03;;;1.70;99.90;;;;;;5035707;28;20037;-81
2022/04/10 05:52:22;;;;;;;5.72;2.50;;;;;;;;;;5035223;28;20025;-81
2022/04/10 05:54:48;;;;;;;3.50;2.40;;;;;;;;;;5035940;28;21741;-82
2022/04/10 05:57:14;;;;;;;7.13;3.72;;;;;;;;;;5034502;28;20036;-81
2022/04/10 05:59:39;;;;;;;4.90;2.92;;;;;;;;;;5026521;28;20158;-80
2022/04/10 06:02:05;;;;;;;6.03;3.72;;;;;;;;;;5042220;28;20029;-82
2022/04/10 06:04:31;;;;;;;4.82;2.78;;;;;;;;;;5034405;28;20056;-83
2022/04/10 06:06:58;;;;;;;5.22;3.13;;;;;;;;;;5028912;28;20029;-82
2022/04/10 06:09:24;;;;;;;4.30;2.55;;;;;;;;;;5028731;28;20044;-80
2022/04/10 06:11:50;;;;;;;4.68;2.75;;;;;;;;;;5035690;28;20025;-80
2022/04/10 06:14:16;;;;;;;6.90;2.78;;;;;;;;;;5019612;28;20716;-78
2022/04/10 06:16:41;;;;;;;8.25;3.58;;;;;;;;;;5036543;28;20033;-81
2022/04/10 06:19:07;;;;;;;15.82;4.85;;;;;;;;;;5031122;28;20454;-79
2022/04/10 06:21:33;;;;;;;14.85;4.70;;;;;;;;;;5022815;28;20053;-80
2022/04/10 06:23:59;;;;;;;42.95;12.88;;;;;;;;;;5031777;28;20572;-82
2022/04/10 06:26:25;;;;;;;25.45;12.07;;;;;;;;;;5030719;28;20512;-82
2022/04/10 06:28:53;;;;;;;14.93;5.07;;;;;;;;;;5039267;28;20115;-82
2022/04/10 06:31:19;;;;;;;12.27;5.55;;;;;;;;;;5036006;28;20025;-82
2022/04/10 06:33:45;;;;;;;8.65;4.75;;;;;;;;;;5034432;28;20120;-81
2022/04/10 06:36:11;;;;;;;14.88;5.90;;;;;;;;;;5037207;28;20133;-82
2022/04/10 06:38:37;;;;;;;11.23;6.00;;;;;;;;;;5036428;28;20461;-78
2022/04/10 06:41:02;;;;;;;10.73;5.07;;;;;;;;;;5032766;28;20373;-79
2022/04/10 06:43:28;;;;;;;11.00;4.20;;;;;;;;;;5045992;28;20473;-81
2022/04/10 06:45:54;;;;;;;12.90;4.43;;;;;;;;;;5039538;28;20048;-79
2022/04/10 06:48:20;;;;;;;5.68;3.78;;;;;;;;;;5040655;28;20127;-82
2022/04/10 06:50:46;;;;;;;10.27;3.60;;;;;;;;;;5033925;28;20519;-80
2022/04/10 06:53:12;;;;;;;8.10;3.67;;;;;;;;;;5027800;28;20033;-79
2022/04/10 06:55:38;;;;;;;8.07;4.72;;;3.50;99.90;;;;;;5030663;28;20026;-77
2022/04/10 06:58:04;;;;;;;8.07;4.20;;;;;;;;;;5026732;28;20115;-78
2022/04/10 07:00:31;;;;;;;6.53;3.72;;;;;;;;;;5031063;28;20489;-82
2022/04/10 07:03:01;;;;;;;7.63;3.13;;;;;;;;;;5025827;28;20764;-79
2022/04/10 07:05:27;;;;;;;5.80;3.80;;;;;;;;;;5030973;28;20052;-80
2022/04/10 07:07:54;;;;;;;8.48;4.03;;;;;;;;;;5036760;28;20470;-78
2022/04/10 07:10:20;;;;;;;7.95;4.18;;;;;;;;;;5039871;28;20029;-79
2022/04/10 07:12:46;;;;;;;4.65;2.33;;;;;;;;;;5034442;28;20033;-79
2022/04/10 07:15:12;;;;;;;11.60;2.85;;;;;;;;;;5022327;28;20044;-79
2022/04/10 07:17:38;;;;;;;6.68;1.88;;;;;;;;;;5036303;28;20017;-80
2022/04/10 07:20:04;;;;;;;12.98;2.92;;;;;;;;;;5033725;28;20116;-80
2022/04/10 07:25:15;;;;;;;2.08;1.27;;;;;;;;;;5036106;28;20102;-78
2022/04/10 07:27:41;;;;;;;4.22;2.38;;;;;;;;;;5040624;28;20025;-80
2022/04/10 07:30:07;;;;;;;2.35;1.65;;;;;;;;;;5031997;28;20025;-82
2022/04/10 07:32:33;;;;;;;3.97;1.73;;;;;;;;;;5042211;28;20033;-80
2022/04/10 07:35:02;;;;;;;3.72;1.40;;;;;;;;;;5044781;28;20435;-81
2022/04/10 07:37:28;;;;;;;2.58;1.70;;;;;;;;;;5044674;28;20030;-81
2022/04/10 07:39:54;;;;;;;2.83;1.75;;;;;;;;;;5048185;28;20032;-81
2022/04/10 07:42:20;;;;;;;3.28;1.70;;;;;;;;;;5041713;28;20029;-81
2022/04/10 07:44:46;;;;;;;5.10;2.08;;;;;;;;;;5038130;28;20037;-80
2022/04/10 07:47:28;;;;;;;6.35;1.55;;;;;;;;;;5041028;28;20037;-79
2022/04/10 07:49:54;;;;;;;4.68;1.80;;;;;;;;;;5038903;28;20067;-80
2022/04/10 07:52:23;;;;;;;2.85;1.55;;;;;;;;;;5043228;28;20048;-81
2022/04/10 07:54:50;;;;;;;3.42;1.15;;;;;;;;;;5035539;28;20093;-78
2022/04/10 07:57:16;;;;;;;2.78;1.75;;;;;;;;;;5038799;28;20075;-81
2022/04/10 07:59:43;;;;;;;2.85;1.17;;;;;;;;;;5037117;28;20029;-79
2022/04/10 08:02:09;;;;;;;3.55;1.52;;;;;;;;;;5037478;28;20038;-80
2022/04/10 08:04:35;;;;;;;2.15;1.52;;;;;;;;;;5051412;28;20397;-81
2022/04/10 08:07:01;;;;;;;3.75;2.03;;;;;;;;;;5036949;28;20323;-79
2022/04/10 08:09:27;;;;;;;5.43;1.38;;;;;;;;;;5042676;28;20120;-80
2022/04/10 08:11:53;;;;;;;2.80;1.75;;;;;;;;;;5038786;28;20477;-81
2022/04/10 08:14:19;;;;;;;7.47;2.95;;;;;;;;;;5044507;28;20121;-80
2022/04/10 08:16:46;;;;;;;2.58;1.45;;;;;;;;;;5039711;28;20162;-81
2022/04/10 08:19:12;;;;;;;3.33;1.85;;;;;;;;;;5045248;28;20033;-80
2022/04/10 08:21:38;;;;;;;4.35;1.42;;;;;;;;;;5042828;28;20025;-81
2022/04/10 08:24:04;;;;;;;5.70;1.55;;;;;;;;;;5043693;28;20037;-80
2022/04/10 08:26:30;;;;;;;2.65;1.52;;;;;;;;;;5039533;28;20052;-81
2022/04/10 08:28:56;;;;;;;3.08;1.33;;;;;;;;;;5044571;28;20083;-83
2022/04/10 08:31:23;;;;;;;1.17;0.70;;;;;;;;;;5040255;28;20044;-83
2022/04/10 08:33:51;;;;;;;3.08;1.42;;;6.50;99.90;;;;;;5039919;28;20057;-81
2022/04/10 08:36:17;;;;;;;3.40;1.20;;;;;;;;;;5034152;28;20033;-82
2022/04/10 08:38:43;;;;;;;3.22;1.30;;;;;;;;;;5025472;28;20032;-81
2022/04/10 08:41:10;;;;;;;3.60;0.90;;;;;;;;;;5046095;28;20029;-81
2022/04/10 08:43:36;;;;;;;3.85;0.85;;;;;;;;;;5035720;28;20168;-82
2022/04/10 08:46:03;;;;;;;6.43;0.68;;;6.30;99.90;;;;;;5052731;28;20055;-81
2022/04/10 08:48:30;;;;;;;3.80;1.13;;;;;;;;;;5052567;28;20037;-83
2022/04/10 08:50:59;;;;;;;9.88;0.95;;;;;;;;;;5051864;28;20906;-79
2022/04/10 08:53:25;;;;;;;1.65;0.93;;;;;;;;;;5043109;28;20025;-81
2022/04/10 08:55:51;;;;;;;1.30;1.20;;;;;;;;;;5040998;28;20033;-81
2022/04/10 08:58:21;;;;;;;1.42;0.95;;;;;;;;;;5044371;28;21043;-83
2022/04/10 09:00:47;;;;;;;2.13;0.90;;;;;;;;;;5037318;28;24694;-80
2022/04/10 09:03:13;;;;;;;1.73;0.80;;;;;;;;;;5040908;28;20033;-79
2022/04/10 09:05:40;;;;;;;3.30;0.35;;;;;;;;;;5036890;28;20033;-80
2022/04/10 09:08:18;;;;;;;4.93;1.55;;;;;;;;;;5040469;28;20095;-80
2022/04/10 09:10:56;;;;;;;1.40;0.82;;;;;;;;;;5040391;28;20033;-80
2022/04/10 09:13:27;;;;;;;0.95;0.60;;;;;;;;;;5033652;28;20044;-79
2022/04/10 09:16:02;;;;;;;0.90;0.50;;;;;;;;;;5034996;28;20414;-83
2022/04/10 09:18:28;;;;;;;1.45;0.45;;;;;;;;;;5038245;28;20116;-83
2022/04/10 09:21:07;;;;;;;1.50;0.50;;;;;;;;;;5038996;28;20362;-83
2022/04/10 09:23:33;;;;;;;7.22;0.60;;;;;;;;;;5037012;28;20037;-82
2022/04/10 09:25:59;;;;;;;1.38;0.50;;;;;;;;;;5030303;28;20129;-81
2022/04/10 09:28:41;;;;;;;1.50;0.80;;;;;;;;;;5039361;28;20083;-84
2022/04/10 09:31:26;;;;;;;6.65;0.95;;;;;;;;;;5025604;28;20122;-81
2022/04/10 09:33:53;;;;;;;12.52;1.10;;;;;;;;;;5030989;28;20080;-81
2022/04/10 09:36:31;;;;;;;8.50;0.90;;;;;;;;;;5032309;28;20124;-81
2022/04/10 09:38:57;;;;;;;1.17;0.63;;;;;;;;;;5023140;28;20026;-81
2022/04/10 09:41:23;;;;;;;0.80;0.52;;;;;;;;;;5035794;28;20546;-81
2022/04/10 09:43:50;;;;;;;2.70;0.85;;;;;;;;;;5035360;28;20029;-80
2022/04/10 09:46:16;;;;;;;1.98;1.27;;;;;;;;;;5034902;28;20056;-81
2022/04/10 09:48:42;;;;;;;0.77;0.28;;;;;;;;;;5026723;28;20071;-81
2022/04/10 09:51:10;;;;;;;3.47;0.63;;;;;;;;;;5040375;28;20108;-80
2022/04/10 09:53:36;;;;;;;2.45;0.93;;;;;;;;;;5037587;28;20025;-81
2022/04/10 09:56:04;;;;;;;3.70;1.38;;;4.70;99.90;;;;;;5034715;28;20509;-80
2022/04/10 09:58:31;;;;;;;2.92;1.75;;;;;;;;;;5041790;28;20033;-79
2022/04/10 10:00:58;;;;;;;1.95;1.17;;;;;;;;;;5034845;28;20036;-80
2022/04/10 10:03:25;;;;;;;1.15;0.80;;;;;;;;;;5035039;28;20032;-81
2022/04/10 10:05:54;;;;;;;2.08;0.95;;;;;;;;;;5039233;28;20543;-80
2022/04/10 10:08:21;;;;;;;7.97;1.38;;;;;;;;;;5034426;28;20032;-80
2022/04/10 10:10:47;;;;;;;7.25;1.17;;;;;;;;;;5036892;28;20040;-79
2022/04/10 10:13:13;;;;;;;2.90;1.58;;;;;;;;;;5031197;28;20886;-80
2022/04/10 10:15:39;;;;;;;11.95;2.65;;;;;;;;;;5022660;28;20045;-79
2022/04/10 10:18:13;;;;;;;4.97;2.40;;;;;;;;;;5019777;28;20477;-79
2022/04/10 10:20:40;;;;;;;;;;;;;;;;;;5036542;28;20094;-80
2022/04/10 10:23:12;;;;;;;9.27;2.10;;;;;;;;;;5024820;28;20031;-80
2022/04/10 10:25:38;;;;;;;2.58;1.05;;;;;;;;;;5028931;28;20040;-78
2022/04/10 10:28:04;;;;;;;11.20;3.38;;;;;;;;;;5031459;28;20030;-79
2022/04/10 10:30:36;;;;;;;5.68;2.78;;;;;;;;;;5035257;28;20264;-81
2022/04/10 10:33:18;;;;;;;12.60;2.95;;;;;;;;;;5035957;28;20032;-80
2022/04/10 10:35:48;;;;;;;4.95;1.92;;;;;;;;;;5031426;28;20497;-80
2022/04/10 10:38:20;;;;;;;3.30;1.10;;;;;;;;;;5030254;28;20034;-79
2022/04/10 10:40:47;;;;;;;3.10;1.00;;;;;;;;;;5033773;28;20037;-81
2022/04/10 10:43:18;;;;;;;1.98;0.95;;;;;;;;;;5034242;28;20156;-81
2022/04/10 10:45:44;;;;;;;7.22;1.40;;;;;;;;;;5024674;28;20041;-81
2022/04/10 10:48:25;;;;;;;2.05;1.08;;;;;;;;;;5035345;28;20034;-81
2022/04/10 10:50:52;;;;;;;2.47;0.93;;;;;;;;;;5030832;28;20061;-80
2022/04/10 10:53:38;;;;;;;6.43;0.75;;;;;;;;;;5037402;28;20038;-80
2022/04/10 10:56:05;;;;;;;1.67;0.90;;;;;;;;;;5028934;28;20033;-81
2022/04/10 10:58:32;;;;;;;4.55;1.00;;;;;;;;;;5039300;28;21001;-82
2022/04/10 11:01:04;;;;;;;2.53;1.27;;;;;;;;;;5034302;28;20060;-82
2022/04/10 11:03:30;;;;;;;2.63;1.58;;;;;;;;;;5024164;28;20037;-82
2022/04/10 11:06:06;;;;;;;2.22;1.08;;;;;;;;;;5036880;28;20048;-82
2022/04/10 11:08:38;;;;;;;2.88;1.38;;;;;;;;;;5036348;28;20651;-81
2022/04/10 11:11:05;;;;;;;1.10;0.77;;;;;;;;;;5035043;28;20024;-81
2022/04/10 11:13:42;;;;;;;10.05;4.40;;;;;;;;;;5040777;28;20026;-81
2022/04/10 11:16:14;;;;;;;3.58;2.05;;;;;;;;;;5028010;28;20029;-82
2022/04/10 11:18:41;;;;;;;4.60;2.20;;;;;;;;;;5038239;28;20528;-83
2022/04/10 11:21:18;;;;;;;3.80;1.20;;;;;;;;;;5037082;28;20029;-82
2022/04/10 11:23:48;;;;;;;8.57;1.13;;;;;;;;;;5040383;28;20040;-81
2022/04/10 11:26:18;;;;;;;2.25;1.63;;;;;;;;;;5039627;28;20038;-81
2022/04/10 11:29:02;;;;;;;6.32;1.50;;;;;;;;;;5037387;28;20033;-81
2022/04/10 11:31:28;;;;;;;1.58;1.05;;;;;;;;;;5036755;28;20067;-82
2022/04/10 11:33:55;;;;;;;3.35;1.58;;;;;;;;;;5034536;28;20037;-81
2022/04/10 11:36:21;;;;;;;2.08;1.30;;;;;;;;;;5039639;28;20820;-82
2022/04/10 11:39:05;;;;;;;3.55;1.77;;;;;;;;;;5031252;28;20590;-82
2022/04/10 11:41:32;;;;;;;3.40;1.60;;;;;;;;;;5045441;28;20049;-81
2022/04/10 11:43:58;;;;;;;2.70;1.58;;;;;;;;;;5036919;28;20222;-80
2022/04/10 11:46:26;;;;;;;4.78;1.92;;;;;;;;;;5034816;28;20040;-79
2022/04/10 11:48:55;;;;;;;2.50;1.33;;;;;;;;;;5037733;28;20042;-80
2022/04/10 11:51:21;;;;;;;4.72;2.55;;;;;;;;;;5035282;28;20037;-81
2022/04/10 11:53:54;;;;;;;4.85;1.73;;;;;;;;;;5037797;28;20032;-82
2022/04/10 11:56:20;;;;;;;2.55;1.30;;;;;;;;;;5033833;28;20413;-80
2022/04/10 11:58:46;;;;;;;2.35;1.55;;;;;;;;;;5044426;28;20047;-80
2022/04/10 12:01:12;;;;;;;4.20;1.73;;;;;;;;;;5042182;28;20401;-81
2022/04/10 12:03:43;;;;;;;3.40;1.73;;;;;;;;;;5040465;28;20025;-80
2022/04/10 12:06:10;;;;;;;3.75;2.05;;;;;;;;;;5036077;28;20041;-81
2022/04/10 12:08:36;;;;;;;3.30;1.55;;;;;;;;;;5040474;28;20083;-79
2022/04/10 12:11:03;;;;;;;2.67;1.95;;;;;;;;;;5039989;28;20069;-81
2022/04/10 12:13:39;;;;;;;8.13;3.13;;;9.90;99.90;;;;;;5035213;28;20037;-79
2022/04/10 12:16:11;;;;;;;3.88;2.22;;;;;;;;;;5036573;28;20465;-79
2022/04/10 12:18:46;;;;;;;2.83;1.98;;;;;;;;;;5041398;28;20482;-79
2022/04/10 12:21:14;;;;;;;14.30;5.85;;;;;;;;;;5041737;28;20785;-80
2022/04/10 12:23:40;;;;;;;4.18;2.88;;;;;;;;;;5034548;28;20059;-80
2022/04/10 12:26:06;;;;;;;8.00;3.92;;;;;;;;;;5032328;28;20060;-82
2022/04/10 12:28:32;;;;;;;5.03;2.47;;;;;;;;;;5041667;28;20024;-79
2022/04/10 12:31:01;;;;;;;7.07;2.30;;;9.00;99.90;;;;;;5040615;28;20047;-79
2022/04/10 12:33:27;;;;;;;3.33;2.15;;;;;;;;;;5037175;28;20049;-77
2022/04/10 12:35:53;;;;;;;10.48;2.38;;;;;;;;;;5029910;28;20124;-78
2022/04/10 12:38:19;;;;;;;4.20;2.55;;;;;;;;;;5026913;28;20044;-79
2022/04/10 12:40:45;;;;;;;6.95;1.85;;;;;;;;;;5037539;28;20068;-81
2022/04/10 12:43:12;;;;;;;6.60;2.70;;;;;;;;;;5039028;28;20064;-80
2022/04/10 12:45:39;;;;;;;4.28;1.90;;;;;;;;;;5031797;28;20041;-80
2022/04/10 12:48:25;;;;;;;3.25;2.20;;;;;;;;;;5038166;28;20064;-79
2022/04/10 12:51:10;;;;;;;5.95;2.28;;;;;;;;;;5030196;28;20037;-79
2022/04/10 12:53:36;;;;;;;3.63;2.13;;;;;;;;;;5028168;28;20033;-79
2022/04/10 12:56:02;;;;;;;3.63;2.28;;;;;;;;;;5021511;28;20635;-81
2022/04/10 12:58:29;;;;;;;4.30;2.30;;;;;;;;;;5034771;28;20036;-80
2022/04/10 13:00:56;;;;;;;2.67;1.67;;;;;;;;;;5045505;28;20028;-81
2022/04/10 13:03:26;;;;;;;3.97;2.20;;;;;;;;;;5043690;28;20550;-79
2022/04/10 13:05:55;;;;;;;2.72;1.77;;;;;;;;;;5036096;28;20037;-80
2022/04/10 13:08:23;;;;;;;4.18;1.90;;;;;;;;;;5042858;28;20052;-80
2022/04/10 13:10:50;;;;;;;8.02;1.98;;;;;;;;;;5044179;28;20055;-79
2022/04/10 13:13:16;;;;;;;3.80;1.70;;;;;;;;;;5041738;28;20056;-80
2022/04/10 13:15:42;;;;;;;3.75;2.33;;;;;;;;;;5039697;28;20489;-81
2022/04/10 13:18:09;;;;;;;3.92;1.80;;;;;;;;;;5034324;28;20024;-81
2022/04/10 13:20:38;;;;;;;5.15;2.28;;;;;;;;;;5053717;28;20413;-81
2022/04/10 13:23:04;;;;;;;3.90;2.30;;;;;;;;;;5049794;28;20026;-80
2022/04/10 13:25:35;;;;;;;5.07;1.80;;;;;;;;;;5049747;28;20037;-81
2022/04/10 13:28:05;;;;;;;14.38;4.90;;;8.40;99.90;;;;;;5047691;28;20037;-81
2022/04/10 13:30:31;;;;;;;3.20;1.65;;;;;;;;;;5050772;28;20390;-82
2022/04/10 13:32:59;;;;;;;4.32;2.33;;;;;;;;;;5050410;28;20025;-82
2022/04/10 13:35:25;;;;;;;4.13;2.17;;;;;;;;;;5048744;28;20489;-82
2022/04/10 13:37:51;;;;;;;4.35;2.25;;;;;;;;;;5044327;28;20021;-81
2022/04/10 13:40:17;;;;;;;7.93;2.58;;;;;;;;;;5049311;28;20326;-80
2022/04/10 13:42:44;;;;;;;5.80;2.58;;;;;;;;;;5054841;28;20023;-81
2022/04/10 13:45:10;;;;;;;5.03;2.55;;;;;;;;;;5049127;28;20052;-82
2022/04/10 13:47:36;;;;;;;6.05;2.33;;;;;;;;;;5045730;28;20033;-81
2022/04/10 13:50:03;;;;;;;3.95;2.17;;;;;;;;;;5046343;28;20075;-81
2022/04/10 13:52:30;;;;;;;6.28;2.03;;;;;;;;;;5047641;28;20028;-82
2022/04/10 13:54:56;;;;;;;3.78;1.67;;;;;;;;;;5043484;28;20039;-82
2022/04/10 13:57:22;;;;;;;4.38;1.75;;;;;;;;;;5045818;28;20371;-82
2022/04/10 13:59:49;;;;;;;3.65;1.55;;;;;;;;;;5051890;28;20020;-82
2022/04/10 14:02:15;;;;;;;7.15;1.92;;;;;;;;;;5043007;28;20041;-83
2022/04/10 14:04:41;;;;;;;4.50;2.25;;;;;;;;;;5037323;28;20036;-82
2022/04/10 14:07:07;;;;;;;3.47;1.95;;;;;;;;;;5043110;28;20025;-84
2022/04/10 14:09:34;;;;;;;2.88;1.55;;;;;;;;;;5045187;28;20915;-83
2022/04/10 14:12:04;;;;;;;5.88;1.75;;;;;;;;;;5040109;28;20025;-83
2022/04/10 14:14:31;;;;;;;3.95;1.65;;;;;;;;;;5042593;28;20030;-83
2022/04/10 14:16:59;;;;;;;4.00;2.33;;;;;;;;;;5034702;28;20541;-83
2022/04/10 14:19:25;;;;;;;4.57;1.40;;;;;;;;;;5036690;28;20056;-83
2022/04/10 14:21:51;;;;;;;1.70;1.30;;;;;;;;;;5045987;28;20037;-81
2022/04/10 14:24:17;;;;;;;3.97;1.92;;;;;;;;;;5044244;28;20038;-83
2022/04/10 14:26:43;;;;;;;6.22;2.25;;;;;;;;;;5041633;28;20029;-83
2022/04/10 14:29:08;;;;;;;3.50;1.70;;;;;;;;;;5028801;28;20449;-82
2022/04/10 14:31:34;;;;;;;4.07;2.10;;;;;;;;;;5039025;28;20050;-83
2022/04/10 14:34:04;;;;;;;2.05;1.30;;;;;;;;;;5039495;28;20116;-81
2022/04/10 14:36:30;;;;;;;1.98;1.33;;;;;;;;;;5031071;28;20024;-81
2022/04/10 14:38:56;;;;;;;5.10;1.83;;;;;;;;;;5023972;28;20092;-81
2022/04/10 14:41:23;;;;;;;4.03;1.35;;;;;;;;;;5030253;28;20073;-82